sensor_id;sensor_type;location;lat;lon;timestamp;pressure;altitude;pressure_sealevel;temperature;humidity
77867;BME280;67271;59.120;37.970;2023-04-06T00:02:50;101483.69;;;-1.17;88.35
77867;BME280;67271;59.120;37.970;2023-04-06T00:05:18;101485.59;;;-1.19;88.20
77867;BME280;67271;59.120;37.970;2023-04-06T00:07:45;101491.09;;;-1.22;88.17
77867;BME280;67271;59.120;37.970;2023-04-06T00:10:11;101490.31;;;-1.24;88.19
77867;BME280;67271;59.120;37.970;2023-04-06T00:12:37;101487.81;;;-1.27;88.21
77867;BME280;67271;59.120;37.970;2023-04-06T00:15:03;101494.25;;;-1.31;88.14
77867;BME280;67271;59.120;37.970;2023-04-06T00:17:31;101500.50;;;-1.32;88.22
77867;BME280;67271;59.120;37.970;2023-04-06T00:19:56;101502.22;;;-1.31;88.35
77867;BME280;67271;59.120;37.970;2023-04-06T00:22:22;101497.84;;;-1.32;88.09
77867;BME280;67271;59.120;37.970;2023-04-06T00:24:48;101499.75;;;-1.34;88.04
77867;BME280;67271;59.120;37.970;2023-04-06T00:27:14;101494.63;;;-1.37;88.17
77867;BME280;67271;59.120;37.970;2023-04-06T00:29:41;101505.31;;;-1.38;88.26
77867;BME280;67271;59.120;37.970;2023-04-06T00:32:07;101501.22;;;-1.44;88.25
77867;BME280;67271;59.120;37.970;2023-04-06T00:34:33;101510.97;;;-1.44;88.73
77867;BME280;67271;59.120;37.970;2023-04-06T00:36:59;101507.56;;;-1.46;88.38
77867;BME280;67271;59.120;37.970;2023-04-06T00:39:24;101505.84;;;-1.47;88.22
77867;BME280;67271;59.120;37.970;2023-04-06T00:41:51;101505.06;;;-1.49;88.22
77867;BME280;67271;59.120;37.970;2023-04-06T00:44:18;101511.41;;;-1.52;88.08
77867;BME280;67271;59.120;37.970;2023-04-06T00:46:45;101504.56;;;-1.56;88.12
77867;BME280;67271;59.120;37.970;2023-04-06T00:49:11;101509.00;;;-1.57;88.50
77867;BME280;67271;59.120;37.970;2023-04-06T00:51:37;101512.78;;;-1.61;88.25
77867;BME280;67271;59.120;37.970;2023-04-06T00:54:03;101505.69;;;-1.60;88.32
77867;BME280;67271;59.120;37.970;2023-04-06T00:56:31;101510.22;;;-1.62;88.19
77867;BME280;67271;59.120;37.970;2023-04-06T00:58:57;101505.84;;;-1.63;88.23
77867;BME280;67271;59.120;37.970;2023-04-06T01:01:24;101508.41;;;-1.62;88.19
77867;BME280;67271;59.120;37.970;2023-04-06T01:03:52;101508.56;;;-1.65;88.30
77867;BME280;67271;59.120;37.970;2023-04-06T01:06:20;101507.72;;;-1.65;88.32
77867;BME280;67271;59.120;37.970;2023-04-06T01:08:54;101521.16;;;-1.68;88.39
77867;BME280;67271;59.120;37.970;2023-04-06T01:11:23;101511.50;;;-1.69;88.30
77867;BME280;67271;59.120;37.970;2023-04-06T01:13:50;101513.56;;;-1.74;88.18
77867;BME280;67271;59.120;37.970;2023-04-06T01:16:24;101514.56;;;-1.77;88.37
77867;BME280;67271;59.120;37.970;2023-04-06T01:19:12;101517.28;;;-1.78;88.39
77867;BME280;67271;59.120;37.970;2023-04-06T01:21:43;101519.16;;;-1.80;88.26
77867;BME280;67271;59.120;37.970;2023-04-06T01:24:27;101525.59;;;-1.84;88.43
77867;BME280;67271;59.120;37.970;2023-04-06T01:27:31;101522.34;;;-1.89;88.19
77867;BME280;67271;59.120;37.970;2023-04-06T01:30:23;101521.50;;;-1.90;88.37
77867;BME280;67271;59.120;37.970;2023-04-06T01:32:56;101527.66;;;-1.89;88.48
77867;BME280;67271;59.120;37.970;2023-04-06T01:35:41;101529.44;;;-1.90;88.61
77867;BME280;67271;59.120;37.970;2023-04-06T01:38:12;101533.81;;;-1.89;88.26
77867;BME280;67271;59.120;37.970;2023-04-06T01:40:38;101528.66;;;-1.92;88.28
77867;BME280;67271;59.120;37.970;2023-04-06T01:43:04;101530.53;;;-1.94;88.36
77867;BME280;67271;59.120;37.970;2023-04-06T01:45:42;101528.94;;;-1.97;88.37
77867;BME280;67271;59.120;37.970;2023-04-06T01:48:18;101537.91;;;-1.99;88.35
77867;BME280;67271;59.120;37.970;2023-04-06T01:50:44;101538.03;;;-2.02;88.51
77867;BME280;67271;59.120;37.970;2023-04-06T01:53:14;101545.16;;;-2.03;88.38
77867;BME280;67271;59.120;37.970;2023-04-06T01:55:42;101530.94;;;-2.02;88.07
77867;BME280;67271;59.120;37.970;2023-04-06T01:58:29;101541.47;;;-2.00;88.08
77867;BME280;67271;59.120;37.970;2023-04-06T02:00:55;101530.09;;;-2.02;88.40
77867;BME280;67271;59.120;37.970;2023-04-06T02:03:21;101536.44;;;-2.05;88.34
77867;BME280;67271;59.120;37.970;2023-04-06T02:05:52;101538.16;;;-2.04;88.12
77867;BME280;67271;59.120;37.970;2023-04-06T02:08:26;101532.84;;;-2.04;88.17
77867;BME280;67271;59.120;37.970;2023-04-06T02:10:52;101537.19;;;-2.03;88.21
77867;BME280;67271;59.120;37.970;2023-04-06T02:13:27;101537.28;;;-2.04;88.05
77867;BME280;67271;59.120;37.970;2023-04-06T02:15:54;101538.31;;;-2.07;87.99
77867;BME280;67271;59.120;37.970;2023-04-06T02:18:20;101546.25;;;-2.07;88.06
77867;BME280;67271;59.120;37.970;2023-04-06T02:20:46;101550.63;;;-2.06;88.08
77867;BME280;67271;59.120;37.970;2023-04-06T02:23:12;101547.97;;;-2.06;88.02
77867;BME280;67271;59.120;37.970;2023-04-06T02:25:38;101543.59;;;-2.07;88.08
77867;BME280;67271;59.120;37.970;2023-04-06T02:28:04;101556.78;;;-2.05;87.98
77867;BME280;67271;59.120;37.970;2023-04-06T02:30:30;101549.00;;;-2.08;88.03
77867;BME280;67271;59.120;37.970;2023-04-06T02:33:01;101556.00;;;-2.07;87.89
77867;BME280;67271;59.120;37.970;2023-04-06T02:35:33;101556.88;;;-2.07;87.84
77867;BME280;67271;59.120;37.970;2023-04-06T02:37:59;101561.38;;;-2.09;87.86
77867;BME280;67271;59.120;37.970;2023-04-06T02:40:25;101561.38;;;-2.09;87.99
77867;BME280;67271;59.120;37.970;2023-04-06T02:42:51;101564.97;;;-2.10;87.66
77867;BME280;67271;59.120;37.970;2023-04-06T02:45:25;101567.72;;;-2.11;87.76
77867;BME280;67271;59.120;37.970;2023-04-06T02:47:51;101567.72;;;-2.11;87.71
77867;BME280;67271;59.120;37.970;2023-04-06T02:50:18;101566.88;;;-2.12;87.60
77867;BME280;67271;59.120;37.970;2023-04-06T02:52:53;101570.47;;;-2.13;87.26
77867;BME280;67271;59.120;37.970;2023-04-06T02:55:19;101576.38;;;-2.08;87.56
77867;BME280;67271;59.120;37.970;2023-04-06T02:57:45;101582.53;;;-2.07;87.42
77867;BME280;67271;59.120;37.970;2023-04-06T03:00:12;101572.78;;;-2.07;87.25
77867;BME280;67271;59.120;37.970;2023-04-06T03:02:40;101577.94;;;-2.04;87.05
77867;BME280;67271;59.120;37.970;2023-04-06T03:05:09;101580.41;;;-2.01;87.28
77867;BME280;67271;59.120;37.970;2023-04-06T03:07:39;101581.13;;;-1.97;87.19
77867;BME280;67271;59.120;37.970;2023-04-06T03:10:10;101580.06;;;-1.95;86.85
77867;BME280;67271;59.120;37.970;2023-04-06T03:12:36;101574.75;;;-1.95;86.99
77867;BME280;67271;59.120;37.970;2023-04-06T03:15:22;101579.13;;;-1.93;86.45
77867;BME280;67271;59.120;37.970;2023-04-06T03:17:52;101586.00;;;-1.89;86.40
77867;BME280;67271;59.120;37.970;2023-04-06T03:20:32;101587.53;;;-1.85;86.60
77867;BME280;67271;59.120;37.970;2023-04-06T03:22:58;101581.38;;;-1.86;86.33
77867;BME280;67271;59.120;37.970;2023-04-06T03:25:28;101588.25;;;-1.82;86.02
77867;BME280;67271;59.120;37.970;2023-04-06T03:27:59;101585.50;;;-1.80;86.11
77867;BME280;67271;59.120;37.970;2023-04-06T03:30:25;101577.53;;;-1.80;85.87
77867;BME280;67271;59.120;37.970;2023-04-06T03:32:52;101578.31;;;-1.78;85.70
77867;BME280;67271;59.120;37.970;2023-04-06T03:35:21;101583.47;;;-1.75;85.58
77867;BME280;67271;59.120;37.970;2023-04-06T03:37:46;101585.94;;;-1.72;85.55
77867;BME280;67271;59.120;37.970;2023-04-06T03:40:13;101587.56;;;-1.70;85.26
77867;BME280;67271;59.120;37.970;2023-04-06T03:42:39;101591.81;;;-1.66;85.11
77867;BME280;67271;59.120;37.970;2023-04-06T03:45:11;101593.19;;;-1.59;85.02
77867;BME280;67271;59.120;37.970;2023-04-06T03:47:44;101592.84;;;-1.52;84.85
77867;BME280;67271;59.120;37.970;2023-04-06T03:50:10;101592.50;;;-1.46;84.80
77867;BME280;67271;59.120;37.970;2023-04-06T03:52:36;101600.19;;;-1.42;84.51
77867;BME280;67271;59.120;37.970;2023-04-06T03:55:02;101596.25;;;-1.35;84.23
77867;BME280;67271;59.120;37.970;2023-04-06T03:57:28;101595.75;;;-1.26;83.92
77867;BME280;67271;59.120;37.970;2023-04-06T03:59:57;101607.59;;;-1.15;83.72
77867;BME280;67271;59.120;37.970;2023-04-06T04:02:25;101604.31;;;-1.05;83.55
77867;BME280;67271;59.120;37.970;2023-04-06T04:04:51;101607.22;;;-0.94;83.19
77867;BME280;67271;59.120;37.970;2023-04-06T04:07:17;101603.78;;;-0.80;82.92
77867;BME280;67271;59.120;37.970;2023-04-06T04:09:43;101603.97;;;-0.23;82.21
77867;BME280;67271;59.120;37.970;2023-04-06T04:12:10;101596.00;;;1.82;76.93
77867;BME280;67271;59.120;37.970;2023-04-06T04:14:36;101594.16;;;3.66;71.39
77867;BME280;67271;59.120;37.970;2023-04-06T04:17:02;101598.19;;;3.13;73.22
77867;BME280;67271;59.120;37.970;2023-04-06T04:19:28;101598.16;;;4.18;71.24
77867;BME280;67271;59.120;37.970;2023-04-06T04:21:55;101601.50;;;5.52;68.46
77867;BME280;67271;59.120;37.970;2023-04-06T04:24:29;101592.31;;;6.58;65.92
77867;BME280;67271;59.120;37.970;2023-04-06T04:26:55;101602.97;;;6.70;65.22
77867;BME280;67271;59.120;37.970;2023-04-06T04:29:22;101603.13;;;6.78;65.37
77867;BME280;67271;59.120;37.970;2023-04-06T04:31:50;101605.94;;;7.16;64.99
77867;BME280;67271;59.120;37.970;2023-04-06T04:34:17;101605.13;;;7.64;64.39
77867;BME280;67271;59.120;37.970;2023-04-06T04:36:45;101595.13;;;8.12;63.41
77867;BME280;67271;59.120;37.970;2023-04-06T04:39:18;101598.38;;;8.35;62.75
77867;BME280;67271;59.120;37.970;2023-04-06T04:41:48;101599.19;;;8.82;61.83
77867;BME280;67271;59.120;37.970;2023-04-06T04:44:14;101601.00;;;8.91;61.21
77867;BME280;67271;59.120;37.970;2023-04-06T04:46:41;101596.50;;;8.82;61.45
77867;BME280;67271;59.120;37.970;2023-04-06T04:49:09;101601.97;;;9.18;60.60
77867;BME280;67271;59.120;37.970;2023-04-06T04:51:35;101606.41;;;9.37;60.08
77867;BME280;67271;59.120;37.970;2023-04-06T04:54:07;101606.09;;;9.57;59.27
77867;BME280;67271;59.120;37.970;2023-04-06T04:56:33;101605.56;;;9.54;58.93
77867;BME280;67271;59.120;37.970;2023-04-06T04:59:19;101604.41;;;9.56;59.13
77867;BME280;67271;59.120;37.970;2023-04-06T05:01:52;101604.03;;;9.51;58.58
77867;BME280;67271;59.120;37.970;2023-04-06T05:04:18;101607.88;;;9.49;58.36
77867;BME280;67271;59.120;37.970;2023-04-06T05:06:44;101616.13;;;9.65;57.95
77867;BME280;67271;59.120;37.970;2023-04-06T05:09:10;101616.34;;;9.89;57.49
77867;BME280;67271;59.120;37.970;2023-04-06T05:11:39;101617.78;;;9.76;57.49
77867;BME280;67271;59.120;37.970;2023-04-06T05:14:05;101619.78;;;9.74;57.18
77867;BME280;67271;59.120;37.970;2023-04-06T05:16:33;101611.56;;;10.19;56.31
77867;BME280;67271;59.120;37.970;2023-04-06T05:18:59;101613.22;;;10.45;55.18
77867;BME280;67271;59.120;37.970;2023-04-06T05:21:32;101613.47;;;10.86;54.35
77867;BME280;67271;59.120;37.970;2023-04-06T05:24:05;101625.91;;;11.13;53.63
77867;BME280;67271;59.120;37.970;2023-04-06T05:26:32;101622.97;;;10.98;53.97
77867;BME280;67271;59.120;37.970;2023-04-06T05:29:04;101623.59;;;11.18;53.88
77867;BME280;67271;59.120;37.970;2023-04-06T05:31:33;101624.69;;;10.99;53.39
77867;BME280;67271;59.120;37.970;2023-04-06T05:33:59;101625.72;;;11.06;53.29
77867;BME280;67271;59.120;37.970;2023-04-06T05:36:34;101619.25;;;11.41;52.60
77867;BME280;67271;59.120;37.970;2023-04-06T05:39:05;101621.16;;;11.65;51.82
77867;BME280;67271;59.120;37.970;2023-04-06T05:41:36;101627.59;;;11.64;51.85
77867;BME280;67271;59.120;37.970;2023-04-06T05:44:02;101629.91;;;11.35;51.49
77867;BME280;67271;59.120;37.970;2023-04-06T05:46:29;101630.94;;;11.42;50.94
77867;BME280;67271;59.120;37.970;2023-04-06T05:48:57;101625.59;;;11.74;50.25
77867;BME280;67271;59.120;37.970;2023-04-06T05:51:27;101631.38;;;11.87;49.88
77867;BME280;67271;59.120;37.970;2023-04-06T05:53:53;101621.66;;;12.33;49.26
77867;BME280;67271;59.120;37.970;2023-04-06T05:56:20;101616.94;;;12.19;49.47
77867;BME280;67271;59.120;37.970;2023-04-06T05:58:46;101617.47;;;12.15;49.33
77867;BME280;67271;59.120;37.970;2023-04-06T06:01:15;101638.69;;;11.95;49.07
77867;BME280;67271;59.120;37.970;2023-04-06T06:03:44;101631.03;;;12.07;49.22
77867;BME280;67271;59.120;37.970;2023-04-06T06:06:11;101623.59;;;12.80;48.29
77867;BME280;67271;59.120;37.970;2023-04-06T06:08:56;101627.06;;;13.13;47.38
77867;BME280;67271;59.120;37.970;2023-04-06T06:11:24;101625.25;;;12.97;47.62
77867;BME280;67271;59.120;37.970;2023-04-06T06:13:51;101629.50;;;12.92;47.75
77867;BME280;67271;59.120;37.970;2023-04-06T06:16:18;101629.16;;;12.87;47.28
77867;BME280;67271;59.120;37.970;2023-04-06T06:18:46;101632.28;;;12.75;47.11
77867;BME280;67271;59.120;37.970;2023-04-06T06:21:12;101630.41;;;12.76;47.11
77867;BME280;67271;59.120;37.970;2023-04-06T06:23:39;101628.31;;;12.31;46.76
77867;BME280;67271;59.120;37.970;2023-04-06T06:26:05;101627.97;;;11.85;46.68
77867;BME280;67271;59.120;37.970;2023-04-06T06:28:32;101627.75;;;11.62;46.77
77867;BME280;67271;59.120;37.970;2023-04-06T06:30:57;101636.47;;;10.90;46.51
77867;BME280;67271;59.120;37.970;2023-04-06T06:33:24;101631.63;;;10.68;46.70
77867;BME280;67271;59.120;37.970;2023-04-06T06:35:53;101625.09;;;10.44;46.35
77867;BME280;67271;59.120;37.970;2023-04-06T06:38:19;101632.94;;;10.56;46.50
77867;BME280;67271;59.120;37.970;2023-04-06T06:40:46;101630.72;;;10.51;45.86
77867;BME280;67271;59.120;37.970;2023-04-06T06:43:12;101626.00;;;10.87;45.29
77867;BME280;67271;59.120;37.970;2023-04-06T06:45:56;101626.88;;;10.96;45.25
77867;BME280;67271;59.120;37.970;2023-04-06T06:48:22;101627.13;;;11.10;45.25
77867;BME280;67271;59.120;37.970;2023-04-06T06:50:48;101629.66;;;11.12;44.72
77867;BME280;67271;59.120;37.970;2023-04-06T06:53:14;101620.78;;;11.52;44.56
77867;BME280;67271;59.120;37.970;2023-04-06T06:55:40;101624.25;;;11.78;44.68
77867;BME280;67271;59.120;37.970;2023-04-06T06:58:08;101626.56;;;11.07;43.85
77867;BME280;67271;59.120;37.970;2023-04-06T07:00:34;101629.78;;;10.68;43.96
77867;BME280;67271;59.120;37.970;2023-04-06T07:03:00;101628.22;;;10.58;44.46
77867;BME280;67271;59.120;37.970;2023-04-06T07:05:26;101623.50;;;10.60;44.59
77867;BME280;67271;59.120;37.970;2023-04-06T07:07:53;101629.34;;;10.21;43.14
77867;BME280;67271;59.120;37.970;2023-04-06T07:10:19;101631.59;;;10.16;45.02
77867;BME280;67271;59.120;37.970;2023-04-06T07:12:45;101632.41;;;10.26;44.17
77867;BME280;67271;59.120;37.970;2023-04-06T07:15:11;101635.28;;;10.07;43.74
77867;BME280;67271;59.120;37.970;2023-04-06T07:17:37;101643.47;;;9.80;43.76
77867;BME280;67271;59.120;37.970;2023-04-06T07:20:04;101627.00;;;9.55;44.16
77867;BME280;67271;59.120;37.970;2023-04-06T07:22:30;101624.88;;;9.77;44.17
77867;BME280;67271;59.120;37.970;2023-04-06T07:24:56;101636.75;;;9.66;43.72
77867;BME280;67271;59.120;37.970;2023-04-06T07:27:22;101628.59;;;9.76;44.04
77867;BME280;67271;59.120;37.970;2023-04-06T07:29:48;101636.53;;;9.77;43.35
77867;BME280;67271;59.120;37.970;2023-04-06T07:32:14;101629.22;;;9.69;43.84
77867;BME280;67271;59.120;37.970;2023-04-06T07:34:40;101620.84;;;9.45;43.44
77867;BME280;67271;59.120;37.970;2023-04-06T07:37:06;101627.72;;;9.12;43.32
77867;BME280;67271;59.120;37.970;2023-04-06T07:39:33;101623.94;;;9.05;43.99
77867;BME280;67271;59.120;37.970;2023-04-06T07:42:00;101629.38;;;8.96;43.90
77867;BME280;67271;59.120;37.970;2023-04-06T07:44:26;101636.72;;;8.76;43.81
77867;BME280;67271;59.120;37.970;2023-04-06T07:46:52;101623.75;;;8.42;43.88
77867;BME280;67271;59.120;37.970;2023-04-06T07:49:20;101620.97;;;8.34;44.51
77867;BME280;67271;59.120;37.970;2023-04-06T07:51:47;101624.34;;;8.36;44.86
77867;BME280;67271;59.120;37.970;2023-04-06T07:54:13;101625.06;;;8.29;44.87
77867;BME280;67271;59.120;37.970;2023-04-06T07:56:39;101617.16;;;8.18;44.38
77867;BME280;67271;59.120;37.970;2023-04-06T07:59:05;101620.84;;;7.97;44.77
77867;BME280;67271;59.120;37.970;2023-04-06T08:01:31;101629.09;;;7.86;45.07
77867;BME280;67271;59.120;37.970;2023-04-06T08:03:57;101623.56;;;7.78;45.20
77867;BME280;67271;59.120;37.970;2023-04-06T08:06:24;101621.16;;;7.56;45.21
77867;BME280;67271;59.120;37.970;2023-04-06T08:08:50;101629.91;;;7.38;45.52
77867;BME280;67271;59.120;37.970;2023-04-06T08:11:16;101631.88;;;7.17;45.79
77867;BME280;67271;59.120;37.970;2023-04-06T08:13:42;101630.50;;;6.92;46.01
77867;BME280;67271;59.120;37.970;2023-04-06T08:16:08;101630.47;;;6.73;45.47
77867;BME280;67271;59.120;37.970;2023-04-06T08:18:34;101643.66;;;6.55;45.98
77867;BME280;67271;59.120;37.970;2023-04-06T08:21:00;101630.59;;;6.41;45.64
77867;BME280;67271;59.120;37.970;2023-04-06T08:23:29;101630.72;;;6.40;45.89
77867;BME280;67271;59.120;37.970;2023-04-06T08:25:55;101631.66;;;6.29;46.11
77867;BME280;67271;59.120;37.970;2023-04-06T08:28:21;101633.75;;;6.26;46.02
77867;BME280;67271;59.120;37.970;2023-04-06T08:30:47;101626.09;;;6.21;46.11
77867;BME280;67271;59.120;37.970;2023-04-06T08:33:15;101630.59;;;6.20;46.48
77867;BME280;67271;59.120;37.970;2023-04-06T08:35:41;101628.44;;;6.35;46.39
77867;BME280;67271;59.120;37.970;2023-04-06T08:38:07;101628.63;;;6.43;46.15
77867;BME280;67271;59.120;37.970;2023-04-06T08:40:37;101625.13;;;6.52;46.23
77867;BME280;67271;59.120;37.970;2023-04-06T08:43:06;101623.88;;;6.56;46.28
77867;BME280;67271;59.120;37.970;2023-04-06T08:45:35;101633.91;;;6.54;46.24
77867;BME280;67271;59.120;37.970;2023-04-06T08:48:02;101626.47;;;6.37;45.82
77867;BME280;67271;59.120;37.970;2023-04-06T08:50:32;101633.63;;;6.27;46.53
77867;BME280;67271;59.120;37.970;2023-04-06T08:52:59;101628.16;;;6.17;45.86
77867;BME280;67271;59.120;37.970;2023-04-06T08:55:25;101623.66;;;6.18;46.21
77867;BME280;67271;59.120;37.970;2023-04-06T08:57:52;101622.47;;;6.32;46.31
77867;BME280;67271;59.120;37.970;2023-04-06T09:00:21;101628.25;;;6.57;46.04
77867;BME280;67271;59.120;37.970;2023-04-06T09:02:49;101623.13;;;6.54;45.84
77867;BME280;67271;59.120;37.970;2023-04-06T09:05:16;101620.56;;;6.43;45.76
77867;BME280;67271;59.120;37.970;2023-04-06T09:07:42;101633.34;;;6.51;46.03
77867;BME280;67271;59.120;37.970;2023-04-06T09:10:08;101619.34;;;6.57;45.93
77867;BME280;67271;59.120;37.970;2023-04-06T09:12:34;101620.00;;;6.49;46.23
77867;BME280;67271;59.120;37.970;2023-04-06T09:15:01;101626.50;;;6.47;46.34
77867;BME280;67271;59.120;37.970;2023-04-06T09:17:29;101616.59;;;6.47;46.50
77867;BME280;67271;59.120;37.970;2023-04-06T09:19:56;101621.59;;;6.52;46.12
77867;BME280;67271;59.120;37.970;2023-04-06T09:22:22;101614.13;;;6.65;46.64
77867;BME280;67271;59.120;37.970;2023-04-06T09:24:52;101620.56;;;6.74;46.20
77867;BME280;67271;59.120;37.970;2023-04-06T09:27:38;101624.66;;;6.78;46.01
77867;BME280;67271;59.120;37.970;2023-04-06T09:30:11;101619.69;;;6.73;46.23
77867;BME280;67271;59.120;37.970;2023-04-06T09:32:49;101628.06;;;6.80;45.88
77867;BME280;67271;59.120;37.970;2023-04-06T09:35:16;101619.44;;;6.76;45.92
77867;BME280;67271;59.120;37.970;2023-04-06T09:37:43;101616.75;;;6.76;46.64
77867;BME280;67271;59.120;37.970;2023-04-06T09:40:09;101615.22;;;6.83;46.25
77867;BME280;67271;59.120;37.970;2023-04-06T09:42:36;101614.09;;;6.95;45.97
77867;BME280;67271;59.120;37.970;2023-04-06T09:45:03;101606.03;;;6.95;46.21
77867;BME280;67271;59.120;37.970;2023-04-06T09:47:30;101618.88;;;6.82;45.95
77867;BME280;67271;59.120;37.970;2023-04-06T09:49:58;101607.41;;;6.80;46.18
77867;BME280;67271;59.120;37.970;2023-04-06T09:52:26;101617.34;;;6.89;46.42
77867;BME280;67271;59.120;37.970;2023-04-06T09:54:59;101606.13;;;6.84;46.02
77867;BME280;67271;59.120;37.970;2023-04-06T09:57:31;101609.09;;;6.81;46.00
77867;BME280;67271;59.120;37.970;2023-04-06T10:00:05;101602.50;;;6.95;46.32
77867;BME280;67271;59.120;37.970;2023-04-06T10:03:32;101603.25;;;7.16;46.20
77867;BME280;67271;59.120;37.970;2023-04-06T10:06:01;101597.19;;;7.33;45.70
77867;BME280;67271;59.120;37.970;2023-04-06T10:08:33;101602.56;;;7.33;45.75
77867;BME280;67271;59.120;37.970;2023-04-06T10:11:00;101597.03;;;7.25;45.80
77867;BME280;67271;59.120;37.970;2023-04-06T10:13:27;101604.22;;;7.15;45.91
77867;BME280;67271;59.120;37.970;2023-04-06T10:15:55;101612.88;;;7.09;46.11
77867;BME280;67271;59.120;37.970;2023-04-06T10:18:21;101610.75;;;7.13;45.59
77867;BME280;67271;59.120;37.970;2023-04-06T10:20:57;101609.78;;;7.14;46.21
77867;BME280;67271;59.120;37.970;2023-04-06T10:23:36;101616.28;;;7.11;45.82
77867;BME280;67271;59.120;37.970;2023-04-06T10:26:03;101603.38;;;7.15;45.96
77867;BME280;67271;59.120;37.970;2023-04-06T10:28:33;101605.94;;;7.16;45.49
77867;BME280;67271;59.120;37.970;2023-04-06T10:31:04;101606.91;;;7.15;45.84
77867;BME280;67271;59.120;37.970;2023-04-06T10:33:31;101611.22;;;7.27;45.19
77867;BME280;67271;59.120;37.970;2023-04-06T10:35:57;101600.72;;;7.34;45.52
77867;BME280;67271;59.120;37.970;2023-04-06T10:38:42;101593.53;;;7.44;45.27
77867;BME280;67271;59.120;37.970;2023-04-06T10:41:09;101600.91;;;7.52;45.80
77867;BME280;67271;59.120;37.970;2023-04-06T10:43:37;101597.03;;;7.45;45.85
77867;BME280;67271;59.120;37.970;2023-04-06T10:46:05;101595.06;;;7.47;45.68
77867;BME280;67271;59.120;37.970;2023-04-06T10:48:43;101591.25;;;7.59;45.63
77867;BME280;67271;59.120;37.970;2023-04-06T10:51:11;101593.63;;;7.52;45.64
77867;BME280;67271;59.120;37.970;2023-04-06T10:53:37;101596.75;;;7.48;45.61
77867;BME280;67271;59.120;37.970;2023-04-06T10:56:05;101598.19;;;7.42;45.68
77867;BME280;67271;59.120;37.970;2023-04-06T10:58:36;101590.41;;;7.49;46.08
77867;BME280;67271;59.120;37.970;2023-04-06T11:01:03;101593.66;;;7.62;45.59
77867;BME280;67271;59.120;37.970;2023-04-06T11:03:29;101601.59;;;7.73;45.56
77867;BME280;67271;59.120;37.970;2023-04-06T11:05:55;101591.81;;;7.72;45.32
77867;BME280;67271;59.120;37.970;2023-04-06T11:08:31;101595.34;;;7.72;45.81
77867;BME280;67271;59.120;37.970;2023-04-06T11:11:09;101587.53;;;7.60;45.32
77867;BME280;67271;59.120;37.970;2023-04-06T11:13:43;101585.56;;;7.52;45.02
77867;BME280;67271;59.120;37.970;2023-04-06T11:16:17;101584.16;;;7.58;45.25
77867;BME280;67271;59.120;37.970;2023-04-06T11:18:57;101585.69;;;7.60;44.71
77867;BME280;67271;59.120;37.970;2023-04-06T11:21:35;101587.28;;;7.63;44.72
77867;BME280;67271;59.120;37.970;2023-04-06T11:24:16;101597.19;;;7.62;44.77
77867;BME280;67271;59.120;37.970;2023-04-06T11:26:48;101586.13;;;7.56;44.65
77867;BME280;67271;59.120;37.970;2023-04-06T11:29:19;101583.16;;;7.68;45.03
77867;BME280;67271;59.120;37.970;2023-04-06T11:31:47;101572.50;;;7.76;44.19
77867;BME280;67271;59.120;37.970;2023-04-06T11:34:17;101574.06;;;7.79;44.94
77867;BME280;67271;59.120;37.970;2023-04-06T11:36:45;101572.38;;;7.78;44.59
77867;BME280;67271;59.120;37.970;2023-04-06T11:39:20;101575.50;;;7.73;44.90
77867;BME280;67271;59.120;37.970;2023-04-06T11:42:00;101566.84;;;7.80;44.42
77867;BME280;67271;59.120;37.970;2023-04-06T11:47:32;101567.84;;;7.69;44.20
77867;BME280;67271;59.120;37.970;2023-04-06T11:50:06;101565.84;;;7.61;43.66
77867;BME280;67271;59.120;37.970;2023-04-06T11:52:33;101562.88;;;7.64;43.47
77867;BME280;67271;59.120;37.970;2023-04-06T11:55:10;101560.59;;;7.60;43.35
77867;BME280;67271;59.120;37.970;2023-04-06T11:57:36;101563.31;;;7.69;43.85
77867;BME280;67271;59.120;37.970;2023-04-06T12:00:02;101557.78;;;7.71;43.70
77867;BME280;67271;59.120;37.970;2023-04-06T12:02:30;101553.09;;;7.73;43.70
77867;BME280;67271;59.120;37.970;2023-04-06T12:04:57;101552.66;;;7.77;43.87
77867;BME280;67271;59.120;37.970;2023-04-06T12:07:23;101557.03;;;7.88;44.09
77867;BME280;67271;59.120;37.970;2023-04-06T12:09:49;101543.97;;;7.93;44.05
77867;BME280;67271;59.120;37.970;2023-04-06T12:12:15;101551.81;;;7.77;43.49
77867;BME280;67271;59.120;37.970;2023-04-06T12:14:41;101558.50;;;7.73;43.76
77867;BME280;67271;59.120;37.970;2023-04-06T12:17:07;101550.22;;;7.74;43.88
77867;BME280;67271;59.120;37.970;2023-04-06T12:19:33;101551.81;;;7.77;43.36
77867;BME280;67271;59.120;37.970;2023-04-06T12:21:59;101540.31;;;7.75;43.44
77867;BME280;67271;59.120;37.970;2023-04-06T12:24:25;101543.72;;;7.77;43.97
77867;BME280;67271;59.120;37.970;2023-04-06T12:26:54;101546.81;;;7.82;43.95
77867;BME280;67271;59.120;37.970;2023-04-06T12:29:20;101541.44;;;7.82;43.86
77867;BME280;67271;59.120;37.970;2023-04-06T12:31:46;101541.44;;;7.82;43.70
77867;BME280;67271;59.120;37.970;2023-04-06T12:34:12;101542.88;;;7.76;43.58
77867;BME280;67271;59.120;37.970;2023-04-06T12:36:38;101538.06;;;7.61;43.38
77867;BME280;67271;59.120;37.970;2023-04-06T12:39:05;101535.66;;;7.48;43.62
77867;BME280;67271;59.120;37.970;2023-04-06T12:41:30;101536.94;;;7.63;43.83
77867;BME280;67271;59.120;37.970;2023-04-06T12:43:58;101541.34;;;7.64;43.78
77867;BME280;67271;59.120;37.970;2023-04-06T12:46:24;101537.78;;;7.64;43.99
77867;BME280;67271;59.120;37.970;2023-04-06T12:48:53;101539.78;;;7.62;43.89
77867;BME280;67271;59.120;37.970;2023-04-06T12:51:20;101530.69;;;7.63;43.76
77867;BME280;67271;59.120;37.970;2023-04-06T12:53:46;101528.53;;;7.76;43.80
77867;BME280;67271;59.120;37.970;2023-04-06T12:56:16;101528.41;;;7.68;43.76
77867;BME280;67271;59.120;37.970;2023-04-06T12:58:43;101530.56;;;7.74;43.79